sensor_id;sensor_type;location;lat;lon;timestamp;P1;durP1;ratioP1;P2;durP2;ratioP2
15383;SDS011;7790;53.022;12.968;2023-02-15T00:00:09;2.07;;;1.97;;
15383;SDS011;7790;53.022;12.968;2023-02-15T00:04:14;2.23;;;2.03;;
15383;SDS011;7790;53.022;12.968;2023-02-15T00:08:20;1.97;;;1.87;;
15383;SDS011;7790;53.022;12.968;2023-02-15T00:12:20;2.10;;;2.00;;
15383;SDS011;7790;53.022;12.968;2023-02-15T00:16:21;1.90;;;1.80;;
15383;SDS011;7790;53.022;12.968;2023-02-15T00:20:22;2.03;;;1.93;;
15383;SDS011;7790;53.022;12.968;2023-02-15T00:24:23;2.00;;;1.90;;
15383;SDS011;7790;53.022;12.968;2023-02-15T00:28:24;2.10;;;1.93;;
15383;SDS011;7790;53.022;12.968;2023-02-15T00:32:25;2.60;;;2.40;;
15383;SDS011;7790;53.022;12.968;2023-02-15T00:36:26;2.63;;;2.20;;
15383;SDS011;7790;53.022;12.968;2023-02-15T00:40:27;2.30;;;2.20;;
15383;SDS011;7790;53.022;12.968;2023-02-15T00:44:28;2.30;;;1.90;;
15383;SDS011;7790;53.022;12.968;2023-02-15T00:48:30;2.00;;;1.80;;
15383;SDS011;7790;53.022;12.968;2023-02-15T00:52:31;2.63;;;2.00;;
15383;SDS011;7790;53.022;12.968;2023-02-15T00:56:32;2.00;;;1.90;;
15383;SDS011;7790;53.022;12.968;2023-02-15T01:00:33;2.20;;;2.10;;
15383;SDS011;7790;53.022;12.968;2023-02-15T01:04:35;2.43;;;2.23;;
15383;SDS011;7790;53.022;12.968;2023-02-15T01:08:39;2.63;;;2.43;;
15383;SDS011;7790;53.022;12.968;2023-02-15T01:12:42;2.53;;;2.33;;
15383;SDS011;7790;53.022;12.968;2023-02-15T01:16:42;3.27;;;2.40;;
15383;SDS011;7790;53.022;12.968;2023-02-15T01:20:43;2.63;;;2.43;;
15383;SDS011;7790;53.022;12.968;2023-02-15T01:24:44;2.83;;;2.63;;
15383;SDS011;7790;53.022;12.968;2023-02-15T01:28:45;2.70;;;2.50;;
15383;SDS011;7790;53.022;12.968;2023-02-15T01:32:47;3.23;;;2.53;;
15383;SDS011;7790;53.022;12.968;2023-02-15T01:36:47;2.57;;;2.37;;
15383;SDS011;7790;53.022;12.968;2023-02-15T01:40:52;2.40;;;2.20;;
15383;SDS011;7790;53.022;12.968;2023-02-15T01:49:08;2.80;;;2.60;;
15383;SDS011;7790;53.022;12.968;2023-02-15T01:53:22;2.67;;;2.33;;
15383;SDS011;7790;53.022;12.968;2023-02-15T01:57:32;2.80;;;2.60;;
15383;SDS011;7790;53.022;12.968;2023-02-15T02:01:33;3.10;;;2.80;;
15383;SDS011;7790;53.022;12.968;2023-02-15T02:05:35;3.10;;;2.90;;
15383;SDS011;7790;53.022;12.968;2023-02-15T02:09:37;3.20;;;2.90;;
15383;SDS011;7790;53.022;12.968;2023-02-15T02:13:42;3.60;;;2.80;;
15383;SDS011;7790;53.022;12.968;2023-02-15T02:18:03;3.33;;;3.03;;
15383;SDS011;7790;53.022;12.968;2023-02-15T02:26:47;3.03;;;2.83;;
15383;SDS011;7790;53.022;12.968;2023-02-15T02:44:27;2.50;;;2.40;;
15383;SDS011;7790;53.022;12.968;2023-02-15T02:48:34;3.30;;;3.00;;
15383;SDS011;7790;53.022;12.968;2023-02-15T02:52:41;3.30;;;3.00;;
15383;SDS011;7790;53.022;12.968;2023-02-15T02:56:49;3.77;;;3.10;;
15383;SDS011;7790;53.022;12.968;2023-02-15T03:05:08;3.20;;;2.90;;
15383;SDS011;7790;53.022;12.968;2023-02-15T03:09:36;3.40;;;3.00;;
15383;SDS011;7790;53.022;12.968;2023-02-15T03:13:43;3.70;;;3.40;;
15383;SDS011;7790;53.022;12.968;2023-02-15T03:17:48;3.50;;;3.20;;
15383;SDS011;7790;53.022;12.968;2023-02-15T03:21:57;3.20;;;3.00;;
15383;SDS011;7790;53.022;12.968;2023-02-15T03:26:26;3.10;;;2.90;;
15383;SDS011;7790;53.022;12.968;2023-02-15T03:30:28;3.20;;;2.90;;
15383;SDS011;7790;53.022;12.968;2023-02-15T03:34:31;3.27;;;2.97;;
15383;SDS011;7790;53.022;12.968;2023-02-15T03:38:34;2.90;;;2.70;;
15383;SDS011;7790;53.022;12.968;2023-02-15T03:42:43;3.40;;;3.10;;
15383;SDS011;7790;53.022;12.968;2023-02-15T03:46:47;3.50;;;3.20;;
15383;SDS011;7790;53.022;12.968;2023-02-15T03:51:07;3.07;;;2.87;;
15383;SDS011;7790;53.022;12.968;2023-02-15T03:55:31;2.97;;;2.77;;
15383;SDS011;7790;53.022;12.968;2023-02-15T03:59:33;3.10;;;2.90;;
15383;SDS011;7790;53.022;12.968;2023-02-15T04:04:09;3.47;;;3.17;;
15383;SDS011;7790;53.022;12.968;2023-02-15T04:08:19;3.60;;;3.30;;
15383;SDS011;7790;53.022;12.968;2023-02-15T04:12:20;4.00;;;3.70;;
15383;SDS011;7790;53.022;12.968;2023-02-15T04:16:24;3.60;;;3.30;;
15383;SDS011;7790;53.022;12.968;2023-02-15T04:20:25;3.57;;;3.23;;
15383;SDS011;7790;53.022;12.968;2023-02-15T04:24:45;3.27;;;3.03;;
15383;SDS011;7790;53.022;12.968;2023-02-15T04:29:04;3.70;;;3.40;;
15383;SDS011;7790;53.022;12.968;2023-02-15T04:33:05;3.70;;;3.40;;
15383;SDS011;7790;53.022;12.968;2023-02-15T04:37:06;3.80;;;3.50;;
15383;SDS011;7790;53.022;12.968;2023-02-15T04:41:06;3.80;;;3.50;;
15383;SDS011;7790;53.022;12.968;2023-02-15T04:45:08;3.77;;;3.47;;
15383;SDS011;7790;53.022;12.968;2023-02-15T04:49:09;3.70;;;3.40;;
15383;SDS011;7790;53.022;12.968;2023-02-15T04:53:10;4.20;;;3.80;;
15383;SDS011;7790;53.022;12.968;2023-02-15T04:57:11;4.00;;;3.70;;
15383;SDS011;7790;53.022;12.968;2023-02-15T05:01:13;3.70;;;3.40;;
15383;SDS011;7790;53.022;12.968;2023-02-15T05:05:14;3.90;;;3.60;;
15383;SDS011;7790;53.022;12.968;2023-02-15T05:09:15;3.57;;;3.30;;
15383;SDS011;7790;53.022;12.968;2023-02-15T05:13:16;3.90;;;3.60;;
15383;SDS011;7790;53.022;12.968;2023-02-15T05:17:17;4.47;;;4.07;;
15383;SDS011;7790;53.022;12.968;2023-02-15T05:21:18;3.90;;;3.60;;
15383;SDS011;7790;53.022;12.968;2023-02-15T05:25:19;4.13;;;3.73;;
15383;SDS011;7790;53.022;12.968;2023-02-15T05:29:38;3.87;;;3.57;;
15383;SDS011;7790;53.022;12.968;2023-02-15T05:33:39;4.03;;;3.73;;
15383;SDS011;7790;53.022;12.968;2023-02-15T05:37:41;4.30;;;4.00;;
15383;SDS011;7790;53.022;12.968;2023-02-15T05:41:42;3.80;;;3.50;;
15383;SDS011;7790;53.022;12.968;2023-02-15T05:45:46;4.07;;;3.77;;
15383;SDS011;7790;53.022;12.968;2023-02-15T05:49:48;3.17;;;2.97;;
15383;SDS011;7790;53.022;12.968;2023-02-15T05:53:49;3.60;;;3.37;;
15383;SDS011;7790;53.022;12.968;2023-02-15T05:57:49;3.83;;;3.53;;
15383;SDS011;7790;53.022;12.968;2023-02-15T06:01:50;3.23;;;3.03;;
15383;SDS011;7790;53.022;12.968;2023-02-15T06:05:52;2.90;;;2.70;;
15383;SDS011;7790;53.022;12.968;2023-02-15T06:09:52;3.33;;;3.13;;
15383;SDS011;7790;53.022;12.968;2023-02-15T06:13:53;3.60;;;3.30;;
15383;SDS011;7790;53.022;12.968;2023-02-15T06:17:54;3.47;;;3.17;;
15383;SDS011;7790;53.022;12.968;2023-02-15T06:21:55;3.80;;;3.50;;
15383;SDS011;7790;53.022;12.968;2023-02-15T06:25:56;3.47;;;3.27;;
15383;SDS011;7790;53.022;12.968;2023-02-15T06:29:56;3.37;;;3.17;;
15383;SDS011;7790;53.022;12.968;2023-02-15T06:33:57;3.50;;;3.30;;
15383;SDS011;7790;53.022;12.968;2023-02-15T06:38:01;4.37;;;4.03;;
15383;SDS011;7790;53.022;12.968;2023-02-15T06:42:02;4.40;;;4.00;;
15383;SDS011;7790;53.022;12.968;2023-02-15T06:46:02;4.17;;;3.87;;
15383;SDS011;7790;53.022;12.968;2023-02-15T06:50:04;4.00;;;3.60;;
15383;SDS011;7790;53.022;12.968;2023-02-15T06:54:06;3.70;;;3.40;;
15383;SDS011;7790;53.022;12.968;2023-02-15T06:58:07;3.93;;;3.20;;
15383;SDS011;7790;53.022;12.968;2023-02-15T07:02:08;5.27;;;3.53;;
15383;SDS011;7790;53.022;12.968;2023-02-15T07:06:11;5.23;;;3.73;;
15383;SDS011;7790;53.022;12.968;2023-02-15T07:10:12;6.13;;;3.93;;
15383;SDS011;7790;53.022;12.968;2023-02-15T07:14:13;3.10;;;2.83;;
15383;SDS011;7790;53.022;12.968;2023-02-15T07:18:14;4.07;;;3.77;;
15383;SDS011;7790;53.022;12.968;2023-02-15T07:22:14;4.17;;;3.73;;
15383;SDS011;7790;53.022;12.968;2023-02-15T07:26:15;4.00;;;3.47;;
15383;SDS011;7790;53.022;12.968;2023-02-15T07:30:16;3.70;;;3.40;;
15383;SDS011;7790;53.022;12.968;2023-02-15T07:34:17;4.97;;;3.90;;
15383;SDS011;7790;53.022;12.968;2023-02-15T07:38:18;4.83;;;3.40;;
15383;SDS011;7790;53.022;12.968;2023-02-15T07:42:19;4.30;;;3.90;;
15383;SDS011;7790;53.022;12.968;2023-02-15T07:46:21;6.80;;;4.20;;
15383;SDS011;7790;53.022;12.968;2023-02-15T07:50:22;5.33;;;4.03;;
15383;SDS011;7790;53.022;12.968;2023-02-15T07:54:22;5.13;;;4.30;;
15383;SDS011;7790;53.022;12.968;2023-02-15T07:58:23;7.97;;;4.80;;
15383;SDS011;7790;53.022;12.968;2023-02-15T08:02:48;6.47;;;4.37;;
15383;SDS011;7790;53.022;12.968;2023-02-15T08:07:09;5.43;;;4.40;;
15383;SDS011;7790;53.022;12.968;2023-02-15T08:11:14;5.97;;;4.40;;
15383;SDS011;7790;53.022;12.968;2023-02-15T08:15:36;6.50;;;4.73;;
15383;SDS011;7790;53.022;12.968;2023-02-15T08:19:37;7.03;;;4.37;;
15383;SDS011;7790;53.022;12.968;2023-02-15T08:23:38;4.83;;;4.23;;
15383;SDS011;7790;53.022;12.968;2023-02-15T08:27:39;8.93;;;4.73;;
15383;SDS011;7790;53.022;12.968;2023-02-15T08:31:39;8.27;;;4.93;;
15383;SDS011;7790;53.022;12.968;2023-02-15T08:35:41;8.50;;;5.00;;
15383;SDS011;7790;53.022;12.968;2023-02-15T08:39:42;9.43;;;5.30;;
15383;SDS011;7790;53.022;12.968;2023-02-15T08:43:43;8.67;;;5.30;;
15383;SDS011;7790;53.022;12.968;2023-02-15T08:47:44;10.97;;;5.33;;
15383;SDS011;7790;53.022;12.968;2023-02-15T08:51:45;9.97;;;5.87;;
15383;SDS011;7790;53.022;12.968;2023-02-15T08:55:54;7.50;;;5.03;;
15383;SDS011;7790;53.022;12.968;2023-02-15T08:59:56;7.27;;;5.17;;
15383;SDS011;7790;53.022;12.968;2023-02-15T09:04:01;9.20;;;5.47;;
15383;SDS011;7790;53.022;12.968;2023-02-15T09:08:04;6.93;;;5.10;;
15383;SDS011;7790;53.022;12.968;2023-02-15T09:12:05;6.67;;;5.00;;
15383;SDS011;7790;53.022;12.968;2023-02-15T09:16:07;7.53;;;5.00;;
15383;SDS011;7790;53.022;12.968;2023-02-15T09:20:09;6.40;;;4.93;;
15383;SDS011;7790;53.022;12.968;2023-02-15T09:24:12;7.57;;;5.57;;
15383;SDS011;7790;53.022;12.968;2023-02-15T09:28:14;7.30;;;4.50;;
15383;SDS011;7790;53.022;12.968;2023-02-15T09:32:15;7.60;;;5.00;;
15383;SDS011;7790;53.022;12.968;2023-02-15T09:36:19;10.30;;;4.90;;
15383;SDS011;7790;53.022;12.968;2023-02-15T09:40:20;5.83;;;4.60;;
15383;SDS011;7790;53.022;12.968;2023-02-15T09:48:43;5.30;;;4.80;;
15383;SDS011;7790;53.022;12.968;2023-02-15T09:57:20;6.10;;;5.50;;
15383;SDS011;7790;53.022;12.968;2023-02-15T10:14:55;10.27;;;6.90;;
15383;SDS011;7790;53.022;12.968;2023-02-15T10:28:03;7.73;;;6.90;;
15383;SDS011;7790;53.022;12.968;2023-02-15T10:36:36;7.43;;;6.03;;
15383;SDS011;7790;53.022;12.968;2023-02-15T10:41:03;6.50;;;5.90;;
15383;SDS011;7790;53.022;12.968;2023-02-15T10:54:00;7.27;;;6.57;;
15383;SDS011;7790;53.022;12.968;2023-02-15T11:07:37;7.67;;;6.97;;
15383;SDS011;7790;53.022;12.968;2023-02-15T11:11:41;7.80;;;7.10;;
15383;SDS011;7790;53.022;12.968;2023-02-15T11:15:47;7.00;;;6.30;;
15383;SDS011;7790;53.022;12.968;2023-02-15T11:24:12;8.57;;;7.67;;
15383;SDS011;7790;53.022;12.968;2023-02-15T11:28:19;7.60;;;6.77;;
15383;SDS011;7790;53.022;12.968;2023-02-15T11:32:26;8.00;;;7.20;;
15383;SDS011;7790;53.022;12.968;2023-02-15T11:36:34;8.20;;;7.40;;
15383;SDS011;7790;53.022;12.968;2023-02-15T11:40:47;9.00;;;8.00;;
15383;SDS011;7790;53.022;12.968;2023-02-15T11:49:10;8.10;;;7.27;;
15383;SDS011;7790;53.022;12.968;2023-02-15T11:53:33;8.13;;;7.43;;
15383;SDS011;7790;53.022;12.968;2023-02-15T11:57:38;8.43;;;7.67;;
15383;SDS011;7790;53.022;12.968;2023-02-15T12:01:44;8.17;;;7.37;;
15383;SDS011;7790;53.022;12.968;2023-02-15T12:05:46;8.70;;;7.20;;
15383;SDS011;7790;53.022;12.968;2023-02-15T12:14:22;8.70;;;7.80;;
15383;SDS011;7790;53.022;12.968;2023-02-15T12:18:36;8.93;;;7.87;;
15383;SDS011;7790;53.022;12.968;2023-02-15T12:22:45;8.30;;;7.50;;
15383;SDS011;7790;53.022;12.968;2023-02-15T12:27:04;8.47;;;7.60;;
15383;SDS011;7790;53.022;12.968;2023-02-15T12:31:39;11.53;;;7.57;;
15383;SDS011;7790;53.022;12.968;2023-02-15T12:35:43;9.13;;;8.20;;
15383;SDS011;7790;53.022;12.968;2023-02-15T12:44:20;10.10;;;8.60;;
15383;SDS011;7790;53.022;12.968;2023-02-15T12:48:20;10.20;;;9.20;;
15383;SDS011;7790;53.022;12.968;2023-02-15T12:56:26;9.30;;;8.30;;
15383;SDS011;7790;53.022;12.968;2023-02-15T13:00:29;9.90;;;8.90;;
15383;SDS011;7790;53.022;12.968;2023-02-15T13:04:32;8.90;;;8.00;;
15383;SDS011;7790;53.022;12.968;2023-02-15T13:08:35;9.03;;;8.13;;
15383;SDS011;7790;53.022;12.968;2023-02-15T13:12:47;7.87;;;7.17;;
15383;SDS011;7790;53.022;12.968;2023-02-15T13:16:52;11.83;;;9.63;;
15383;SDS011;7790;53.022;12.968;2023-02-15T13:21:09;10.10;;;8.80;;
15383;SDS011;7790;53.022;12.968;2023-02-15T13:25:22;9.40;;;8.30;;
15383;SDS011;7790;53.022;12.968;2023-02-15T13:29:30;8.10;;;7.37;;
15383;SDS011;7790;53.022;12.968;2023-02-15T13:33:34;8.00;;;7.20;;
15383;SDS011;7790;53.022;12.968;2023-02-15T13:42:08;8.40;;;7.43;;
15383;SDS011;7790;53.022;12.968;2023-02-15T13:46:45;8.37;;;7.50;;
15383;SDS011;7790;53.022;12.968;2023-02-15T13:51:10;7.40;;;6.70;;
15383;SDS011;7790;53.022;12.968;2023-02-15T13:55:31;8.03;;;6.70;;
15383;SDS011;7790;53.022;12.968;2023-02-15T14:20:46;7.27;;;6.37;;
15383;SDS011;7790;53.022;12.968;2023-02-15T14:25:15;6.80;;;6.20;;
15383;SDS011;7790;53.022;12.968;2023-02-15T14:33:56;6.87;;;6.17;;
15383;SDS011;7790;53.022;12.968;2023-02-15T14:38:02;7.23;;;6.53;;
15383;SDS011;7790;53.022;12.968;2023-02-15T14:47:04;6.37;;;5.77;;
15383;SDS011;7790;53.022;12.968;2023-02-15T14:51:06;6.50;;;5.90;;
15383;SDS011;7790;53.022;12.968;2023-02-15T14:55:07;6.70;;;6.10;;
15383;SDS011;7790;53.022;12.968;2023-02-15T15:03:19;5.70;;;5.20;;
15383;SDS011;7790;53.022;12.968;2023-02-15T15:07:24;6.40;;;5.80;;
15383;SDS011;7790;53.022;12.968;2023-02-15T15:11:37;6.70;;;6.10;;
15383;SDS011;7790;53.022;12.968;2023-02-15T15:15:49;6.23;;;5.63;;
15383;SDS011;7790;53.022;12.968;2023-02-15T15:23:54;6.70;;;6.10;;
15383;SDS011;7790;53.022;12.968;2023-02-15T15:27:56;6.70;;;6.10;;
15383;SDS011;7790;53.022;12.968;2023-02-15T15:31:57;6.27;;;5.67;;
15383;SDS011;7790;53.022;12.968;2023-02-15T15:36:35;6.30;;;5.70;;
15383;SDS011;7790;53.022;12.968;2023-02-15T15:49:37;6.30;;;5.70;;
15383;SDS011;7790;53.022;12.968;2023-02-15T15:53:40;6.13;;;5.63;;
15383;SDS011;7790;53.022;12.968;2023-02-15T15:57:46;6.43;;;5.87;;
15383;SDS011;7790;53.022;12.968;2023-02-15T16:02:03;6.43;;;5.90;;
15383;SDS011;7790;53.022;12.968;2023-02-15T16:06:06;6.83;;;6.23;;
15383;SDS011;7790;53.022;12.968;2023-02-15T16:10:27;6.90;;;6.30;;
15383;SDS011;7790;53.022;12.968;2023-02-15T16:14:36;6.47;;;5.87;;
15383;SDS011;7790;53.022;12.968;2023-02-15T16:18:42;6.77;;;6.17;;
15383;SDS011;7790;53.022;12.968;2023-02-15T16:22:45;7.13;;;6.43;;
15383;SDS011;7790;53.022;12.968;2023-02-15T16:31:15;7.10;;;6.40;;
15383;SDS011;7790;53.022;12.968;2023-02-15T16:35:18;8.57;;;6.83;;
15383;SDS011;7790;53.022;12.968;2023-02-15T16:39:20;6.80;;;6.20;;
15383;SDS011;7790;53.022;12.968;2023-02-15T16:43:26;7.00;;;6.40;;
15383;SDS011;7790;53.022;12.968;2023-02-15T16:47:29;6.80;;;6.20;;
15383;SDS011;7790;53.022;12.968;2023-02-15T16:51:34;6.97;;;6.37;;
15383;SDS011;7790;53.022;12.968;2023-02-15T16:55:39;10.60;;;7.33;;
15383;SDS011;7790;53.022;12.968;2023-02-15T16:59:42;17.40;;;7.40;;
15383;SDS011;7790;53.022;12.968;2023-02-15T17:03:50;9.77;;;7.17;;
15383;SDS011;7790;53.022;12.968;2023-02-15T17:12:43;8.27;;;6.60;;
15383;SDS011;7790;53.022;12.968;2023-02-15T17:17:07;7.37;;;6.60;;
15383;SDS011;7790;53.022;12.968;2023-02-15T17:21:19;8.27;;;6.50;;
15383;SDS011;7790;53.022;12.968;2023-02-15T17:25:33;11.40;;;7.00;;
15383;SDS011;7790;53.022;12.968;2023-02-15T17:29:38;7.40;;;6.70;;
15383;SDS011;7790;53.022;12.968;2023-02-15T17:33:41;6.93;;;6.23;;
15383;SDS011;7790;53.022;12.968;2023-02-15T17:37:43;6.97;;;6.20;;
15383;SDS011;7790;53.022;12.968;2023-02-15T17:41:48;6.73;;;5.97;;
15383;SDS011;7790;53.022;12.968;2023-02-15T17:45:53;5.80;;;5.30;;
15383;SDS011;7790;53.022;12.968;2023-02-15T17:49:55;5.83;;;5.33;;
15383;SDS011;7790;53.022;12.968;2023-02-15T17:53:56;5.97;;;5.47;;
15383;SDS011;7790;53.022;12.968;2023-02-15T17:58:16;7.20;;;5.37;;
15383;SDS011;7790;53.022;12.968;2023-02-15T18:02:18;5.80;;;5.30;;
15383;SDS011;7790;53.022;12.968;2023-02-15T18:06:38;5.63;;;5.13;;
15383;SDS011;7790;53.022;12.968;2023-02-15T18:11:00;6.40;;;5.80;;
15383;SDS011;7790;53.022;12.968;2023-02-15T18:15:19;7.20;;;5.53;;
15383;SDS011;7790;53.022;12.968;2023-02-15T18:19:21;6.03;;;5.30;;
15383;SDS011;7790;53.022;12.968;2023-02-15T18:23:24;5.83;;;5.20;;
15383;SDS011;7790;53.022;12.968;2023-02-15T18:27:25;6.13;;;5.60;;
15383;SDS011;7790;53.022;12.968;2023-02-15T18:31:26;5.90;;;5.30;;
15383;SDS011;7790;53.022;12.968;2023-02-15T18:35:30;5.57;;;5.07;;
15383;SDS011;7790;53.022;12.968;2023-02-15T18:43:41;5.67;;;5.13;;
15383;SDS011;7790;53.022;12.968;2023-02-15T18:47:42;6.53;;;5.63;;
15383;SDS011;7790;53.022;12.968;2023-02-15T18:51:45;5.63;;;5.13;;
15383;SDS011;7790;53.022;12.968;2023-02-15T18:55:46;5.63;;;5.23;;
15383;SDS011;7790;53.022;12.968;2023-02-15T18:59:48;5.80;;;5.30;;
15383;SDS011;7790;53.022;12.968;2023-02-15T19:03:50;5.33;;;4.90;;
15383;SDS011;7790;53.022;12.968;2023-02-15T19:07:51;5.10;;;4.70;;
15383;SDS011;7790;53.022;12.968;2023-02-15T19:11:53;5.40;;;4.70;;
15383;SDS011;7790;53.022;12.968;2023-02-15T19:15:55;4.97;;;4.57;;
15383;SDS011;7790;53.022;12.968;2023-02-15T19:19:56;5.03;;;4.63;;
15383;SDS011;7790;53.022;12.968;2023-02-15T19:23:58;5.23;;;4.83;;
15383;SDS011;7790;53.022;12.968;2023-02-15T19:28:08;4.90;;;4.50;;
15383;SDS011;7790;53.022;12.968;2023-02-15T19:32:14;6.07;;;4.83;;
15383;SDS011;7790;53.022;12.968;2023-02-15T19:36:16;5.90;;;4.60;;
15383;SDS011;7790;53.022;12.968;2023-02-15T19:40:31;4.47;;;4.07;;
15383;SDS011;7790;53.022;12.968;2023-02-15T19:44:33;4.50;;;4.10;;
15383;SDS011;7790;53.022;12.968;2023-02-15T19:48:34;4.67;;;4.27;;
15383;SDS011;7790;53.022;12.968;2023-02-15T19:52:35;4.43;;;4.03;;
15383;SDS011;7790;53.022;12.968;2023-02-15T19:56:35;9.53;;;3.90;;
15383;SDS011;7790;53.022;12.968;2023-02-15T20:00:38;6.20;;;4.30;;
15383;SDS011;7790;53.022;12.968;2023-02-15T20:04:39;4.23;;;3.90;;
15383;SDS011;7790;53.022;12.968;2023-02-15T20:08:40;5.10;;;3.90;;
15383;SDS011;7790;53.022;12.968;2023-02-15T20:12:42;4.60;;;3.40;;
15383;SDS011;7790;53.022;12.968;2023-02-15T20:16:43;3.73;;;3.43;;
15383;SDS011;7790;53.022;12.968;2023-02-15T20:20:51;4.47;;;3.53;;
15383;SDS011;7790;53.022;12.968;2023-02-15T20:24:53;5.83;;;3.53;;
15383;SDS011;7790;53.022;12.968;2023-02-15T20:28:56;3.93;;;3.53;;
15383;SDS011;7790;53.022;12.968;2023-02-15T20:32:57;3.97;;;3.57;;
15383;SDS011;7790;53.022;12.968;2023-02-15T20:36:58;3.87;;;3.30;;
15383;SDS011;7790;53.022;12.968;2023-02-15T20:40:59;3.37;;;3.17;;
15383;SDS011;7790;53.022;12.968;2023-02-15T20:45:20;3.47;;;3.23;;
15383;SDS011;7790;53.022;12.968;2023-02-15T20:49:24;3.20;;;3.00;;
15383;SDS011;7790;53.022;12.968;2023-02-15T20:53:26;3.03;;;2.83;;
15383;SDS011;7790;53.022;12.968;2023-02-15T20:57:28;3.47;;;3.17;;
15383;SDS011;7790;53.022;12.968;2023-02-15T21:01:28;3.17;;;2.97;;
15383;SDS011;7790;53.022;12.968;2023-02-15T21:05:30;3.17;;;2.87;;
15383;SDS011;7790;53.022;12.968;2023-02-15T21:09:32;2.87;;;2.67;;
15383;SDS011;7790;53.022;12.968;2023-02-15T21:13:33;2.90;;;2.60;;
15383;SDS011;7790;53.022;12.968;2023-02-15T21:17:34;2.83;;;2.63;;
15383;SDS011;7790;53.022;12.968;2023-02-15T21:21:35;2.83;;;2.50;;
15383;SDS011;7790;53.022;12.968;2023-02-15T21:25:36;2.60;;;2.43;;
15383;SDS011;7790;53.022;12.968;2023-02-15T21:29:37;2.83;;;2.63;;
15383;SDS011;7790;53.022;12.968;2023-02-15T21:33:38;2.63;;;2.50;;
15383;SDS011;7790;53.022;12.968;2023-02-15T21:37:39;2.57;;;2.40;;
15383;SDS011;7790;53.022;12.968;2023-02-15T21:41:42;2.33;;;2.23;;
15383;SDS011;7790;53.022;12.968;2023-02-15T21:46:11;2.27;;;2.17;;
15383;SDS011;7790;53.022;12.968;2023-02-15T21:50:32;2.23;;;2.13;;
15383;SDS011;7790;53.022;12.968;2023-02-15T21:54:53;2.00;;;1.90;;
15383;SDS011;7790;53.022;12.968;2023-02-15T21:58:54;3.07;;;2.17;;
15383;SDS011;7790;53.022;12.968;2023-02-15T22:02:55;2.40;;;2.20;;
15383;SDS011;7790;53.022;12.968;2023-02-15T22:06:58;2.27;;;2.07;;
15383;SDS011;7790;53.022;12.968;2023-02-15T22:10:59;2.20;;;2.10;;
15383;SDS011;7790;53.022;12.968;2023-02-15T22:15:00;2.43;;;2.33;;
15383;SDS011;7790;53.022;12.968;2023-02-15T22:19:01;2.20;;;2.10;;
15383;SDS011;7790;53.022;12.968;2023-02-15T22:23:01;2.00;;;1.90;;
15383;SDS011;7790;53.022;12.968;2023-02-15T22:27:03;1.90;;;1.80;;
15383;SDS011;7790;53.022;12.968;2023-02-15T22:31:05;2.07;;;1.97;;
15383;SDS011;7790;53.022;12.968;2023-02-15T22:35:10;2.37;;;2.17;;
15383;SDS011;7790;53.022;12.968;2023-02-15T22:39:18;2.00;;;1.90;;
15383;SDS011;7790;53.022;12.968;2023-02-15T22:47:37;3.00;;;1.70;;
15383;SDS011;7790;53.022;12.968;2023-02-15T22:51:38;1.90;;;1.80;;
15383;SDS011;7790;53.022;12.968;2023-02-15T22:55:39;1.97;;;1.87;;
15383;SDS011;7790;53.022;12.968;2023-02-15T22:59:40;1.80;;;1.70;;
15383;SDS011;7790;53.022;12.968;2023-02-15T23:03:41;1.67;;;1.57;;
15383;SDS011;7790;53.022;12.968;2023-02-15T23:07:42;1.67;;;1.57;;
15383;SDS011;7790;53.022;12.968;2023-02-15T23:11:42;2.00;;;1.90;;
15383;SDS011;7790;53.022;12.968;2023-02-15T23:15:46;1.80;;;1.70;;
15383;SDS011;7790;53.022;12.968;2023-02-15T23:19:48;1.70;;;1.60;;
15383;SDS011;7790;53.022;12.968;2023-02-15T23:23:54;1.70;;;1.60;;
15383;SDS011;7790;53.022;12.968;2023-02-15T23:27:57;1.70;;;1.60;;
15383;SDS011;7790;53.022;12.968;2023-02-15T23:31:58;1.77;;;1.67;;
15383;SDS011;7790;53.022;12.968;2023-02-15T23:35:59;1.77;;;1.67;;
15383;SDS011;7790;53.022;12.968;2023-02-15T23:40:00;1.90;;;1.80;;
15383;SDS011;7790;53.022;12.968;2023-02-15T23:44:19;1.67;;;1.57;;
15383;SDS011;7790;53.022;12.968;2023-02-15T23:48:25;1.87;;;1.77;;
15383;SDS011;7790;53.022;12.968;2023-02-15T23:52:33;1.60;;;1.50;;
15383;SDS011;7790;53.022;12.968;2023-02-15T23:56:33;1.67;;;1.57;;
